sensor_id;sensor_type;location;lat;lon;timestamp;P1;durP1;ratioP1;P2;durP2;ratioP2
64873;SDS011;51367;45.204;38.576;2023-06-22T00:02:17;4.70;;;4.20;;
64873;SDS011;51367;45.204;38.576;2023-06-22T00:04:43;10.30;;;3.95;;
64873;SDS011;51367;45.204;38.576;2023-06-22T00:07:10;5.75;;;5.15;;
64873;SDS011;51367;45.204;38.576;2023-06-22T00:09:35;6.38;;;4.80;;
64873;SDS011;51367;45.204;38.576;2023-06-22T00:12:01;4.32;;;3.92;;
64873;SDS011;51367;45.204;38.576;2023-06-22T00:14:28;7.47;;;5.15;;
64873;SDS011;51367;45.204;38.576;2023-06-22T00:16:54;6.72;;;4.57;;
64873;SDS011;51367;45.204;38.576;2023-06-22T00:19:24;7.70;;;4.75;;
64873;SDS011;51367;45.204;38.576;2023-06-22T00:21:50;5.90;;;4.75;;
64873;SDS011;51367;45.204;38.576;2023-06-22T00:24:19;5.03;;;4.55;;
64873;SDS011;51367;45.204;38.576;2023-06-22T00:26:47;7.07;;;4.63;;
64873;SDS011;51367;45.204;38.576;2023-06-22T00:29:13;4.95;;;4.55;;
64873;SDS011;51367;45.204;38.576;2023-06-22T00:31:39;5.95;;;4.80;;
64873;SDS011;51367;45.204;38.576;2023-06-22T00:34:05;7.18;;;4.97;;
64873;SDS011;51367;45.204;38.576;2023-06-22T00:36:34;5.65;;;4.90;;
64873;SDS011;51367;45.204;38.576;2023-06-22T00:39:02;11.10;;;5.10;;
64873;SDS011;51367;45.204;38.576;2023-06-22T00:41:29;6.82;;;4.85;;
64873;SDS011;51367;45.204;38.576;2023-06-22T00:43:56;12.18;;;4.63;;
64873;SDS011;51367;45.204;38.576;2023-06-22T00:46:23;8.63;;;4.63;;
64873;SDS011;51367;45.204;38.576;2023-06-22T00:48:50;5.10;;;4.57;;
64873;SDS011;51367;45.204;38.576;2023-06-22T00:51:17;9.27;;;4.60;;
64873;SDS011;51367;45.204;38.576;2023-06-22T00:53:50;5.43;;;4.83;;
64873;SDS011;51367;45.204;38.576;2023-06-22T00:56:17;5.20;;;4.70;;
64873;SDS011;51367;45.204;38.576;2023-06-22T00:58:45;5.22;;;4.72;;
64873;SDS011;51367;45.204;38.576;2023-06-22T01:01:13;8.27;;;5.22;;
64873;SDS011;51367;45.204;38.576;2023-06-22T01:03:39;5.53;;;4.75;;
64873;SDS011;51367;45.204;38.576;2023-06-22T01:06:09;6.97;;;5.07;;
64873;SDS011;51367;45.204;38.576;2023-06-22T01:08:46;6.45;;;5.05;;
64873;SDS011;51367;45.204;38.576;2023-06-22T01:11:25;5.20;;;4.55;;
64873;SDS011;51367;45.204;38.576;2023-06-22T01:14:02;7.00;;;5.40;;
64873;SDS011;51367;45.204;38.576;2023-06-22T01:16:36;5.70;;;5.20;;
64873;SDS011;51367;45.204;38.576;2023-06-22T01:19:49;4.80;;;4.40;;
64873;SDS011;51367;45.204;38.576;2023-06-22T01:22:17;4.68;;;4.18;;
64873;SDS011;51367;45.204;38.576;2023-06-22T01:24:51;5.80;;;4.55;;
64873;SDS011;51367;45.204;38.576;2023-06-22T01:27:47;8.98;;;5.22;;
64873;SDS011;51367;45.204;38.576;2023-06-22T01:30:22;10.88;;;5.45;;
64873;SDS011;51367;45.204;38.576;2023-06-22T01:32:53;4.53;;;4.13;;
64873;SDS011;51367;45.204;38.576;2023-06-22T01:35:20;6.88;;;5.40;;
64873;SDS011;51367;45.204;38.576;2023-06-22T01:37:47;5.93;;;5.15;;
64873;SDS011;51367;45.204;38.576;2023-06-22T01:40:13;9.80;;;5.28;;
64873;SDS011;51367;45.204;38.576;2023-06-22T01:42:40;7.35;;;4.35;;
64873;SDS011;51367;45.204;38.576;2023-06-22T01:45:08;6.88;;;5.38;;
64873;SDS011;51367;45.204;38.576;2023-06-22T01:47:37;7.43;;;5.05;;
64873;SDS011;51367;45.204;38.576;2023-06-22T01:50:04;8.88;;;4.95;;
64873;SDS011;51367;45.204;38.576;2023-06-22T01:52:32;7.22;;;5.60;;
64873;SDS011;51367;45.204;38.576;2023-06-22T01:54:59;5.72;;;5.15;;
64873;SDS011;51367;45.204;38.576;2023-06-22T01:57:26;5.15;;;4.40;;
64873;SDS011;51367;45.204;38.576;2023-06-22T01:59:59;7.28;;;5.57;;
64873;SDS011;51367;45.204;38.576;2023-06-22T02:02:47;7.55;;;5.38;;
64873;SDS011;51367;45.204;38.576;2023-06-22T02:05:29;8.05;;;4.75;;
64873;SDS011;51367;45.204;38.576;2023-06-22T02:08:07;5.82;;;5.20;;
64873;SDS011;51367;45.204;38.576;2023-06-22T02:10:36;8.57;;;5.00;;
64873;SDS011;51367;45.204;38.576;2023-06-22T02:13:06;7.25;;;5.18;;
64873;SDS011;51367;45.204;38.576;2023-06-22T02:15:34;5.90;;;5.35;;
64873;SDS011;51367;45.204;38.576;2023-06-22T02:18:00;7.22;;;4.78;;
64873;SDS011;51367;45.204;38.576;2023-06-22T02:20:26;5.32;;;4.25;;
64873;SDS011;51367;45.204;38.576;2023-06-22T02:22:52;5.50;;;4.60;;
64873;SDS011;51367;45.204;38.576;2023-06-22T02:25:18;10.57;;;5.43;;
64873;SDS011;51367;45.204;38.576;2023-06-22T02:27:45;10.55;;;4.45;;
64873;SDS011;51367;45.204;38.576;2023-06-22T02:30:11;15.18;;;5.40;;
64873;SDS011;51367;45.204;38.576;2023-06-22T02:32:38;5.82;;;4.38;;
64873;SDS011;51367;45.204;38.576;2023-06-22T02:35:07;6.00;;;5.28;;
64873;SDS011;51367;45.204;38.576;2023-06-22T02:37:34;5.32;;;4.82;;
64873;SDS011;51367;45.204;38.576;2023-06-22T02:40:04;5.40;;;4.90;;
64873;SDS011;51367;45.204;38.576;2023-06-22T02:42:33;5.88;;;5.35;;
64873;SDS011;51367;45.204;38.576;2023-06-22T02:44:59;7.20;;;5.15;;
64873;SDS011;51367;45.204;38.576;2023-06-22T02:47:25;4.63;;;4.22;;
64873;SDS011;51367;45.204;38.576;2023-06-22T02:49:51;5.45;;;4.82;;
64873;SDS011;51367;45.204;38.576;2023-06-22T02:52:18;7.25;;;5.32;;
64873;SDS011;51367;45.204;38.576;2023-06-22T02:54:44;5.68;;;4.93;;
64873;SDS011;51367;45.204;38.576;2023-06-22T02:57:13;12.57;;;5.50;;
64873;SDS011;51367;45.204;38.576;2023-06-22T02:59:41;7.13;;;5.05;;
64873;SDS011;51367;45.204;38.576;2023-06-22T03:02:09;7.07;;;4.65;;
64873;SDS011;51367;45.204;38.576;2023-06-22T03:04:36;5.00;;;4.50;;
64873;SDS011;51367;45.204;38.576;2023-06-22T03:07:03;6.93;;;5.20;;
64873;SDS011;51367;45.204;38.576;2023-06-22T03:09:30;5.05;;;4.22;;
64873;SDS011;51367;45.204;38.576;2023-06-22T03:11:57;6.15;;;4.97;;
64873;SDS011;51367;45.204;38.576;2023-06-22T03:14:27;10.13;;;5.18;;
64873;SDS011;51367;45.204;38.576;2023-06-22T03:16:53;6.75;;;5.43;;
64873;SDS011;51367;45.204;38.576;2023-06-22T03:19:19;4.95;;;4.55;;
64873;SDS011;51367;45.204;38.576;2023-06-22T03:21:47;5.55;;;4.97;;
64873;SDS011;51367;45.204;38.576;2023-06-22T03:24:13;6.50;;;5.05;;
64873;SDS011;51367;45.204;38.576;2023-06-22T03:26:39;4.35;;;3.95;;
64873;SDS011;51367;45.204;38.576;2023-06-22T03:29:05;6.13;;;5.25;;
64873;SDS011;51367;45.204;38.576;2023-06-22T03:31:33;9.07;;;5.50;;
64873;SDS011;51367;45.204;38.576;2023-06-22T03:33:59;5.22;;;4.68;;
64873;SDS011;51367;45.204;38.576;2023-06-22T03:36:25;6.75;;;6.05;;
64873;SDS011;51367;45.204;38.576;2023-06-22T03:38:51;9.68;;;6.13;;
64873;SDS011;51367;45.204;38.576;2023-06-22T03:41:17;6.65;;;4.88;;
64873;SDS011;51367;45.204;38.576;2023-06-22T03:43:43;7.63;;;5.05;;
64873;SDS011;51367;45.204;38.576;2023-06-22T03:46:09;5.30;;;4.82;;
64873;SDS011;51367;45.204;38.576;2023-06-22T03:48:35;14.88;;;5.03;;
64873;SDS011;51367;45.204;38.576;2023-06-22T03:51:02;6.00;;;4.60;;
64873;SDS011;51367;45.204;38.576;2023-06-22T03:53:28;5.43;;;4.95;;
64873;SDS011;51367;45.204;38.576;2023-06-22T03:55:55;9.00;;;4.63;;
64873;SDS011;51367;45.204;38.576;2023-06-22T03:58:21;7.68;;;4.50;;
64873;SDS011;51367;45.204;38.576;2023-06-22T04:00:48;4.53;;;4.13;;
64873;SDS011;51367;45.204;38.576;2023-06-22T04:03:14;9.13;;;4.90;;
64873;SDS011;51367;45.204;38.576;2023-06-22T04:05:41;5.18;;;4.55;;
64873;SDS011;51367;45.204;38.576;2023-06-22T04:08:07;6.13;;;5.53;;
64873;SDS011;51367;45.204;38.576;2023-06-22T04:10:33;4.45;;;4.15;;
64873;SDS011;51367;45.204;38.576;2023-06-22T04:12:59;4.97;;;4.13;;
64873;SDS011;51367;45.204;38.576;2023-06-22T04:15:25;4.35;;;2.90;;
64873;SDS011;51367;45.204;38.576;2023-06-22T04:17:51;4.00;;;3.70;;
64873;SDS011;51367;45.204;38.576;2023-06-22T04:20:18;15.45;;;4.25;;
64873;SDS011;51367;45.204;38.576;2023-06-22T04:22:44;6.40;;;4.63;;
64873;SDS011;51367;45.204;38.576;2023-06-22T04:25:11;5.15;;;4.07;;
64873;SDS011;51367;45.204;38.576;2023-06-22T04:27:37;6.65;;;4.70;;
64873;SDS011;51367;45.204;38.576;2023-06-22T04:30:08;5.93;;;4.53;;
64873;SDS011;51367;45.204;38.576;2023-06-22T04:32:34;4.70;;;4.30;;
64873;SDS011;51367;45.204;38.576;2023-06-22T04:35:04;14.48;;;4.65;;
64873;SDS011;51367;45.204;38.576;2023-06-22T04:37:31;4.50;;;4.10;;
64873;SDS011;51367;45.204;38.576;2023-06-22T04:39:58;6.18;;;3.78;;
64873;SDS011;51367;45.204;38.576;2023-06-22T04:42:27;4.90;;;4.47;;
64873;SDS011;51367;45.204;38.576;2023-06-22T04:44:53;5.90;;;4.53;;
64873;SDS011;51367;45.204;38.576;2023-06-22T04:47:19;6.78;;;4.10;;
64873;SDS011;51367;45.204;38.576;2023-06-22T04:49:45;4.10;;;3.70;;
64873;SDS011;51367;45.204;38.576;2023-06-22T04:52:12;5.35;;;4.05;;
64873;SDS011;51367;45.204;38.576;2023-06-22T04:54:39;4.25;;;3.85;;
64873;SDS011;51367;45.204;38.576;2023-06-22T04:57:13;3.90;;;3.53;;
64873;SDS011;51367;45.204;38.576;2023-06-22T04:59:40;9.02;;;4.00;;
64873;SDS011;51367;45.204;38.576;2023-06-22T05:02:07;7.25;;;3.97;;
64873;SDS011;51367;45.204;38.576;2023-06-22T05:04:34;4.32;;;3.92;;
64873;SDS011;51367;45.204;38.576;2023-06-22T05:07:06;4.93;;;3.70;;
64873;SDS011;51367;45.204;38.576;2023-06-22T05:09:32;4.03;;;3.60;;
64873;SDS011;51367;45.204;38.576;2023-06-22T05:11:59;6.68;;;4.20;;
64873;SDS011;51367;45.204;38.576;2023-06-22T05:14:27;3.60;;;3.30;;
64873;SDS011;51367;45.204;38.576;2023-06-22T05:16:55;7.25;;;3.80;;
64873;SDS011;51367;45.204;38.576;2023-06-22T05:22:14;4.57;;;3.92;;
64873;SDS011;51367;45.204;38.576;2023-06-22T05:24:41;9.48;;;5.90;;
64873;SDS011;51367;45.204;38.576;2023-06-22T05:30:11;5.28;;;4.45;;
64873;SDS011;51367;45.204;38.576;2023-06-22T05:32:37;5.47;;;4.93;;
64873;SDS011;51367;45.204;38.576;2023-06-22T05:35:03;4.68;;;3.53;;
64873;SDS011;51367;45.204;38.576;2023-06-22T05:38:07;7.72;;;3.45;;
64873;SDS011;51367;45.204;38.576;2023-06-22T05:41:10;5.00;;;3.65;;
64873;SDS011;51367;45.204;38.576;2023-06-22T05:43:36;5.22;;;3.80;;
64873;SDS011;51367;45.204;38.576;2023-06-22T05:46:03;13.27;;;3.90;;
64873;SDS011;51367;45.204;38.576;2023-06-22T05:48:48;4.30;;;3.35;;
64873;SDS011;51367;45.204;38.576;2023-06-22T05:51:32;12.35;;;3.72;;
64873;SDS011;51367;45.204;38.576;2023-06-22T05:53:58;3.67;;;3.38;;
64873;SDS011;51367;45.204;38.576;2023-06-22T05:56:42;3.63;;;3.33;;
64873;SDS011;51367;45.204;38.576;2023-06-22T05:59:08;11.85;;;3.80;;
64873;SDS011;51367;45.204;38.576;2023-06-22T06:01:34;4.15;;;3.47;;
64873;SDS011;51367;45.204;38.576;2023-06-22T06:04:01;5.75;;;2.95;;
64873;SDS011;51367;45.204;38.576;2023-06-22T06:06:30;9.73;;;3.55;;
64873;SDS011;51367;45.204;38.576;2023-06-22T06:08:56;6.18;;;3.00;;
64873;SDS011;51367;45.204;38.576;2023-06-22T06:11:22;5.40;;;3.55;;
64873;SDS011;51367;45.204;38.576;2023-06-22T06:13:48;13.75;;;3.22;;
64873;SDS011;51367;45.204;38.576;2023-06-22T06:16:14;3.08;;;2.30;;
64873;SDS011;51367;45.204;38.576;2023-06-22T06:21:43;2.80;;;2.60;;
64873;SDS011;51367;45.204;38.576;2023-06-22T06:24:09;5.00;;;2.83;;
64873;SDS011;51367;45.204;38.576;2023-06-22T06:26:34;3.63;;;2.65;;
64873;SDS011;51367;45.204;38.576;2023-06-22T06:29:01;4.90;;;2.40;;
64873;SDS011;51367;45.204;38.576;2023-06-22T06:31:27;7.63;;;2.88;;
64873;SDS011;51367;45.204;38.576;2023-06-22T06:33:54;3.55;;;3.25;;
64873;SDS011;51367;45.204;38.576;2023-06-22T06:36:20;4.05;;;2.83;;
64873;SDS011;51367;45.204;38.576;2023-06-22T06:38:46;6.78;;;3.28;;
64873;SDS011;51367;45.204;38.576;2023-06-22T06:41:15;4.32;;;2.97;;
64873;SDS011;51367;45.204;38.576;2023-06-22T06:43:42;3.50;;;2.75;;
64873;SDS011;51367;45.204;38.576;2023-06-22T06:46:10;4.43;;;2.50;;
64873;SDS011;51367;45.204;38.576;2023-06-22T06:48:36;6.32;;;3.58;;
64873;SDS011;51367;45.204;38.576;2023-06-22T06:51:02;8.55;;;2.92;;
64873;SDS011;51367;45.204;38.576;2023-06-22T06:53:28;3.28;;;2.28;;
64873;SDS011;51367;45.204;38.576;2023-06-22T06:55:54;4.10;;;2.53;;
64873;SDS011;51367;45.204;38.576;2023-06-22T06:58:20;5.65;;;4.25;;
64873;SDS011;51367;45.204;38.576;2023-06-22T07:00:48;4.25;;;2.53;;
64873;SDS011;51367;45.204;38.576;2023-06-22T07:03:14;2.83;;;2.53;;
64873;SDS011;51367;45.204;38.576;2023-06-22T07:05:40;5.90;;;2.90;;
64873;SDS011;51367;45.204;38.576;2023-06-22T07:08:06;2.53;;;2.22;;
64873;SDS011;51367;45.204;38.576;2023-06-22T07:10:32;5.43;;;2.78;;
64873;SDS011;51367;45.204;38.576;2023-06-22T07:12:58;9.80;;;3.50;;
64873;SDS011;51367;45.204;38.576;2023-06-22T07:15:24;7.97;;;2.38;;
64873;SDS011;51367;45.204;38.576;2023-06-22T07:17:50;1.83;;;1.70;;
64873;SDS011;51367;45.204;38.576;2023-06-22T07:20:16;5.15;;;2.75;;
64873;SDS011;51367;45.204;38.576;2023-06-22T07:22:42;8.45;;;2.30;;
64873;SDS011;51367;45.204;38.576;2023-06-22T07:25:10;2.60;;;2.40;;
64873;SDS011;51367;45.204;38.576;2023-06-22T07:27:39;6.70;;;1.95;;
64873;SDS011;51367;45.204;38.576;2023-06-22T07:30:10;2.53;;;2.30;;
64873;SDS011;51367;45.204;38.576;2023-06-22T07:32:36;6.35;;;2.50;;
64873;SDS011;51367;45.204;38.576;2023-06-22T07:35:02;3.08;;;2.78;;
64873;SDS011;51367;45.204;38.576;2023-06-22T07:37:30;2.88;;;2.63;;
64873;SDS011;51367;45.204;38.576;2023-06-22T07:39:56;7.80;;;2.60;;
64873;SDS011;51367;45.204;38.576;2023-06-22T07:42:27;2.40;;;1.92;;
64873;SDS011;51367;45.204;38.576;2023-06-22T07:44:55;2.30;;;2.10;;
64873;SDS011;51367;45.204;38.576;2023-06-22T07:47:21;1.88;;;1.77;;
64873;SDS011;51367;45.204;38.576;2023-06-22T07:49:51;2.50;;;2.00;;
64873;SDS011;51367;45.204;38.576;2023-06-22T07:52:17;2.30;;;2.10;;
64873;SDS011;51367;45.204;38.576;2023-06-22T07:54:43;2.42;;;2.20;;
64873;SDS011;51367;45.204;38.576;2023-06-22T07:57:09;2.72;;;2.50;;
64873;SDS011;51367;45.204;38.576;2023-06-22T07:59:35;2.80;;;2.45;;
64873;SDS011;51367;45.204;38.576;2023-06-22T08:02:01;2.83;;;2.03;;
64873;SDS011;51367;45.204;38.576;2023-06-22T08:04:28;4.32;;;2.30;;
64873;SDS011;51367;45.204;38.576;2023-06-22T08:06:56;3.40;;;2.25;;
64873;SDS011;51367;45.204;38.576;2023-06-22T08:09:22;2.35;;;1.85;;
64873;SDS011;51367;45.204;38.576;2023-06-22T08:11:48;3.83;;;1.52;;
64873;SDS011;51367;45.204;38.576;2023-06-22T08:14:14;3.70;;;2.72;;
64873;SDS011;51367;45.204;38.576;2023-06-22T08:16:41;4.30;;;2.13;;
64873;SDS011;51367;45.204;38.576;2023-06-22T08:19:07;2.47;;;1.80;;
64873;SDS011;51367;45.204;38.576;2023-06-22T08:21:33;5.13;;;1.58;;
64873;SDS011;51367;45.204;38.576;2023-06-22T08:23:59;1.80;;;1.65;;
64873;SDS011;51367;45.204;38.576;2023-06-22T08:26:25;3.70;;;1.67;;
64873;SDS011;51367;45.204;38.576;2023-06-22T08:28:51;2.80;;;2.08;;
64873;SDS011;51367;45.204;38.576;2023-06-22T08:31:17;1.90;;;1.80;;
64873;SDS011;51367;45.204;38.576;2023-06-22T08:33:43;2.97;;;2.20;;
64873;SDS011;51367;45.204;38.576;2023-06-22T08:36:11;2.22;;;1.88;;
64873;SDS011;51367;45.204;38.576;2023-06-22T08:38:38;4.45;;;1.80;;
64873;SDS011;51367;45.204;38.576;2023-06-22T08:41:04;1.40;;;1.30;;
64873;SDS011;51367;45.204;38.576;2023-06-22T08:43:30;1.95;;;1.75;;
64873;SDS011;51367;45.204;38.576;2023-06-22T08:45:56;1.77;;;1.67;;
64873;SDS011;51367;45.204;38.576;2023-06-22T08:48:22;1.60;;;1.50;;
64873;SDS011;51367;45.204;38.576;2023-06-22T08:50:48;1.63;;;1.52;;
64873;SDS011;51367;45.204;38.576;2023-06-22T08:53:13;2.65;;;2.13;;
64873;SDS011;51367;45.204;38.576;2023-06-22T08:55:39;2.20;;;1.90;;
64873;SDS011;51367;45.204;38.576;2023-06-22T08:58:05;3.50;;;2.10;;
64873;SDS011;51367;45.204;38.576;2023-06-22T09:00:32;2.10;;;1.90;;
64873;SDS011;51367;45.204;38.576;2023-06-22T09:03:00;2.25;;;2.05;;
64873;SDS011;51367;45.204;38.576;2023-06-22T09:05:26;4.78;;;2.00;;
64873;SDS011;51367;45.204;38.576;2023-06-22T09:07:52;1.30;;;1.20;;
64873;SDS011;51367;45.204;38.576;2023-06-22T09:10:20;2.95;;;2.25;;
64873;SDS011;51367;45.204;38.576;2023-06-22T09:12:46;1.95;;;1.70;;
64873;SDS011;51367;45.204;38.576;2023-06-22T09:15:12;5.45;;;1.88;;
64873;SDS011;51367;45.204;38.576;2023-06-22T09:17:37;1.83;;;1.73;;
64873;SDS011;51367;45.204;38.576;2023-06-22T09:20:04;2.35;;;1.90;;
64873;SDS011;51367;45.204;38.576;2023-06-22T09:22:31;2.22;;;1.60;;
64873;SDS011;51367;45.204;38.576;2023-06-22T09:24:58;3.05;;;1.90;;
64873;SDS011;51367;45.204;38.576;2023-06-22T09:27:25;3.03;;;2.22;;
64873;SDS011;51367;45.204;38.576;2023-06-22T09:29:51;5.43;;;1.98;;
64873;SDS011;51367;45.204;38.576;2023-06-22T09:32:17;2.90;;;2.00;;
64873;SDS011;51367;45.204;38.576;2023-06-22T09:34:43;1.50;;;1.40;;
64873;SDS011;51367;45.204;38.576;2023-06-22T09:37:08;2.80;;;1.80;;
64873;SDS011;51367;45.204;38.576;2023-06-22T09:39:34;2.10;;;1.88;;
64873;SDS011;51367;45.204;38.576;2023-06-22T09:42:02;1.88;;;1.65;;
64873;SDS011;51367;45.204;38.576;2023-06-22T09:44:28;3.97;;;1.80;;
64873;SDS011;51367;45.204;38.576;2023-06-22T09:46:54;2.33;;;2.13;;
64873;SDS011;51367;45.204;38.576;2023-06-22T09:49:20;11.20;;;2.55;;
64873;SDS011;51367;45.204;38.576;2023-06-22T09:51:45;1.90;;;1.80;;
64873;SDS011;51367;45.204;38.576;2023-06-22T09:54:11;4.65;;;2.50;;
64873;SDS011;51367;45.204;38.576;2023-06-22T09:56:37;2.50;;;1.80;;
64873;SDS011;51367;45.204;38.576;2023-06-22T09:59:03;2.08;;;1.88;;
64873;SDS011;51367;45.204;38.576;2023-06-22T10:01:29;3.45;;;2.13;;
64873;SDS011;51367;45.204;38.576;2023-06-22T10:03:55;3.47;;;1.90;;
64873;SDS011;51367;45.204;38.576;2023-06-22T10:06:21;3.17;;;1.98;;
64873;SDS011;51367;45.204;38.576;2023-06-22T10:08:48;6.40;;;2.30;;
64873;SDS011;51367;45.204;38.576;2023-06-22T10:11:15;4.00;;;1.48;;
64873;SDS011;51367;45.204;38.576;2023-06-22T10:13:41;3.80;;;1.98;;
64873;SDS011;51367;45.204;38.576;2023-06-22T10:16:07;1.88;;;1.77;;
64873;SDS011;51367;45.204;38.576;2023-06-22T10:18:33;2.83;;;2.10;;
64873;SDS011;51367;45.204;38.576;2023-06-22T10:20:59;1.88;;;1.77;;
64873;SDS011;51367;45.204;38.576;2023-06-22T10:23:26;3.00;;;1.75;;
64873;SDS011;51367;45.204;38.576;2023-06-22T10:25:52;2.65;;;2.10;;
64873;SDS011;51367;45.204;38.576;2023-06-22T10:28:17;2.55;;;1.63;;
64873;SDS011;51367;45.204;38.576;2023-06-22T10:30:43;2.55;;;2.15;;
64873;SDS011;51367;45.204;38.576;2023-06-22T10:33:10;6.80;;;2.47;;
64873;SDS011;51367;45.204;38.576;2023-06-22T10:35:37;2.10;;;2.00;;
64873;SDS011;51367;45.204;38.576;2023-06-22T10:38:04;4.25;;;2.60;;
64873;SDS011;51367;45.204;38.576;2023-06-22T10:40:30;1.70;;;1.60;;
64873;SDS011;51367;45.204;38.576;2023-06-22T10:42:56;4.35;;;1.83;;
64873;SDS011;51367;45.204;38.576;2023-06-22T10:45:22;11.38;;;2.30;;
64873;SDS011;51367;45.204;38.576;2023-06-22T10:47:48;2.75;;;2.17;;
64873;SDS011;51367;45.204;38.576;2023-06-22T10:50:14;13.20;;;1.85;;
64873;SDS011;51367;45.204;38.576;2023-06-22T10:52:40;1.63;;;1.52;;
64873;SDS011;51367;45.204;38.576;2023-06-22T10:55:09;2.17;;;1.88;;
64873;SDS011;51367;45.204;38.576;2023-06-22T10:57:36;3.40;;;1.67;;
64873;SDS011;51367;45.204;38.576;2023-06-22T11:00:02;2.30;;;1.90;;
64873;SDS011;51367;45.204;38.576;2023-06-22T11:02:31;3.30;;;2.10;;
64873;SDS011;51367;45.204;38.576;2023-06-22T11:04:57;4.15;;;2.60;;
64873;SDS011;51367;45.204;38.576;2023-06-22T11:07:25;1.95;;;1.85;;
64873;SDS011;51367;45.204;38.576;2023-06-22T11:09:54;2.58;;;1.85;;
64873;SDS011;51367;45.204;38.576;2023-06-22T11:12:20;1.58;;;1.48;;
64873;SDS011;51367;45.204;38.576;2023-06-22T11:14:46;4.30;;;2.20;;
64873;SDS011;51367;45.204;38.576;2023-06-22T11:17:12;1.85;;;1.75;;
64873;SDS011;51367;45.204;38.576;2023-06-22T11:19:38;2.15;;;1.95;;
64873;SDS011;51367;45.204;38.576;2023-06-22T11:22:04;1.85;;;1.75;;
64873;SDS011;51367;45.204;38.576;2023-06-22T11:24:30;1.67;;;1.58;;
64873;SDS011;51367;45.204;38.576;2023-06-22T11:26:56;1.73;;;1.63;;
64873;SDS011;51367;45.204;38.576;2023-06-22T11:29:22;3.40;;;2.17;;
64873;SDS011;51367;45.204;38.576;2023-06-22T11:31:48;5.95;;;2.00;;
64873;SDS011;51367;45.204;38.576;2023-06-22T11:34:14;2.95;;;1.95;;
64873;SDS011;51367;45.204;38.576;2023-06-22T11:36:40;1.95;;;1.85;;
64873;SDS011;51367;45.204;38.576;2023-06-22T11:39:05;5.53;;;2.42;;
64873;SDS011;51367;45.204;38.576;2023-06-22T11:41:34;3.30;;;2.53;;
64873;SDS011;51367;45.204;38.576;2023-06-22T11:44:00;2.72;;;1.77;;
64873;SDS011;51367;45.204;38.576;2023-06-22T11:46:26;1.98;;;1.80;;
64873;SDS011;51367;45.204;38.576;2023-06-22T11:48:52;4.78;;;1.98;;
64873;SDS011;51367;45.204;38.576;2023-06-22T11:51:18;2.28;;;1.75;;
64873;SDS011;51367;45.204;38.576;2023-06-22T11:53:44;5.57;;;2.22;;
64873;SDS011;51367;45.204;38.576;2023-06-22T11:56:10;5.63;;;1.58;;
64873;SDS011;51367;45.204;38.576;2023-06-22T11:58:36;3.33;;;1.73;;
64873;SDS011;51367;45.204;38.576;2023-06-22T12:01:02;3.00;;;1.85;;
64873;SDS011;51367;45.204;38.576;2023-06-22T12:03:27;1.77;;;1.67;;
64873;SDS011;51367;45.204;38.576;2023-06-22T12:05:54;2.47;;;2.08;;
64873;SDS011;51367;45.204;38.576;2023-06-22T12:08:20;2.53;;;1.80;;
64873;SDS011;51367;45.204;38.576;2023-06-22T12:10:46;2.22;;;2.03;;
64873;SDS011;51367;45.204;38.576;2023-06-22T12:13:15;2.00;;;1.80;;
64873;SDS011;51367;45.204;38.576;2023-06-22T12:15:41;3.72;;;1.80;;
64873;SDS011;51367;45.204;38.576;2023-06-22T12:18:07;1.88;;;1.60;;
64873;SDS011;51367;45.204;38.576;2023-06-22T12:20:34;2.00;;;1.80;;
64873;SDS011;51367;45.204;38.576;2023-06-22T12:23:00;2.00;;;1.80;;
64873;SDS011;51367;45.204;38.576;2023-06-22T12:25:26;2.38;;;2.17;;
64873;SDS011;51367;45.204;38.576;2023-06-22T12:27:52;1.73;;;1.63;;
64873;SDS011;51367;45.204;38.576;2023-06-22T12:30:19;5.35;;;1.73;;
64873;SDS011;51367;45.204;38.576;2023-06-22T12:32:45;3.60;;;1.55;;
64873;SDS011;51367;45.204;38.576;2023-06-22T12:35:10;3.28;;;2.22;;
64873;SDS011;51367;45.204;38.576;2023-06-22T12:37:40;2.28;;;1.90;;
64873;SDS011;51367;45.204;38.576;2023-06-22T12:40:09;2.58;;;1.77;;
64873;SDS011;51367;45.204;38.576;2023-06-22T12:42:35;4.18;;;1.67;;
64873;SDS011;51367;45.204;38.576;2023-06-22T12:45:01;2.42;;;1.77;;
64873;SDS011;51367;45.204;38.576;2023-06-22T12:47:27;1.52;;;1.42;;
64873;SDS011;51367;45.204;38.576;2023-06-22T12:49:53;1.50;;;1.40;;
64873;SDS011;51367;45.204;38.576;2023-06-22T12:52:19;2.20;;;1.88;;
64873;SDS011;51367;45.204;38.576;2023-06-22T12:54:45;6.38;;;2.05;;
64873;SDS011;51367;45.204;38.576;2023-06-22T12:57:11;4.07;;;1.52;;
64873;SDS011;51367;45.204;38.576;2023-06-22T12:59:36;3.97;;;1.77;;
64873;SDS011;51367;45.204;38.576;2023-06-22T13:02:02;2.50;;;1.90;;
64873;SDS011;51367;45.204;38.576;2023-06-22T13:04:28;2.53;;;1.92;;
64873;SDS011;51367;45.204;38.576;2023-06-22T13:06:54;2.35;;;1.95;;
64873;SDS011;51367;45.204;38.576;2023-06-22T13:09:20;3.67;;;2.20;;
64873;SDS011;51367;45.204;38.576;2023-06-22T13:11:46;3.47;;;1.95;;
64873;SDS011;51367;45.204;38.576;2023-06-22T13:14:12;2.47;;;1.75;;
64873;SDS011;51367;45.204;38.576;2023-06-22T13:16:38;1.88;;;1.77;;
64873;SDS011;51367;45.204;38.576;2023-06-22T13:19:04;2.00;;;1.75;;
64873;SDS011;51367;45.204;38.576;2023-06-22T13:21:30;1.75;;;1.63;;
64873;SDS011;51367;45.204;38.576;2023-06-22T13:23:56;2.00;;;1.88;;
64873;SDS011;51367;45.204;38.576;2023-06-22T13:26:22;1.98;;;1.60;;
64873;SDS011;51367;45.204;38.576;2023-06-22T13:28:48;5.07;;;1.35;;
64873;SDS011;51367;45.204;38.576;2023-06-22T13:31:14;7.55;;;2.13;;
64873;SDS011;51367;45.204;38.576;2023-06-22T13:33:39;5.72;;;1.85;;
64873;SDS011;51367;45.204;38.576;2023-06-22T13:36:09;1.90;;;1.70;;
64873;SDS011;51367;45.204;38.576;2023-06-22T13:38:35;2.40;;;2.00;;
64873;SDS011;51367;45.204;38.576;2023-06-22T13:41:04;1.80;;;1.70;;
64873;SDS011;51367;45.204;38.576;2023-06-22T13:43:30;3.35;;;1.52;;
64873;SDS011;51367;45.204;38.576;2023-06-22T13:45:57;1.52;;;1.42;;
64873;SDS011;51367;45.204;38.576;2023-06-22T13:48:23;3.97;;;1.63;;
64873;SDS011;51367;45.204;38.576;2023-06-22T13:50:51;7.13;;;1.95;;
64873;SDS011;51367;45.204;38.576;2023-06-22T13:53:17;1.65;;;1.55;;
64873;SDS011;51367;45.204;38.576;2023-06-22T13:55:44;3.22;;;2.08;;
64873;SDS011;51367;45.204;38.576;2023-06-22T13:58:09;5.00;;;2.13;;
64873;SDS011;51367;45.204;38.576;2023-06-22T14:00:35;1.63;;;1.27;;
64873;SDS011;51367;45.204;38.576;2023-06-22T14:03:01;3.03;;;1.75;;
64873;SDS011;51367;45.204;38.576;2023-06-22T14:05:28;1.27;;;1.20;;
64873;SDS011;51367;45.204;38.576;2023-06-22T14:07:54;2.40;;;1.83;;
64873;SDS011;51367;45.204;38.576;2023-06-22T14:10:19;2.92;;;1.77;;
64873;SDS011;51367;45.204;38.576;2023-06-22T14:12:45;3.70;;;2.00;;
64873;SDS011;51367;45.204;38.576;2023-06-22T14:15:11;1.60;;;1.50;;
64873;SDS011;51367;45.204;38.576;2023-06-22T14:17:37;1.70;;;1.60;;
64873;SDS011;51367;45.204;38.576;2023-06-22T14:20:03;2.08;;;1.83;;
64873;SDS011;51367;45.204;38.576;2023-06-22T14:22:30;3.53;;;2.03;;
64873;SDS011;51367;45.204;38.576;2023-06-22T14:24:56;3.83;;;2.13;;
64873;SDS011;51367;45.204;38.576;2023-06-22T14:27:23;1.70;;;1.60;;
64873;SDS011;51367;45.204;38.576;2023-06-22T14:29:49;4.10;;;1.80;;
64873;SDS011;51367;45.204;38.576;2023-06-22T14:32:15;1.30;;;1.20;;
64873;SDS011;51367;45.204;38.576;2023-06-22T14:34:41;4.60;;;1.60;;
64873;SDS011;51367;45.204;38.576;2023-06-22T14:37:08;3.38;;;1.80;;
64873;SDS011;51367;45.204;38.576;2023-06-22T14:39:40;2.13;;;1.50;;
64873;SDS011;51367;45.204;38.576;2023-06-22T14:42:06;8.48;;;1.50;;
64873;SDS011;51367;45.204;38.576;2023-06-22T14:44:33;1.30;;;1.20;;